sensor_id;sensor_type;location;lat;lon;timestamp;temperature;humidity
47618;DHT22;33336;36.728;-4.414;2022-07-31T00:02:31;29.70;99.90
47618;DHT22;33336;36.728;-4.414;2022-07-31T00:07:35;30.10;99.90
47618;DHT22;33336;36.728;-4.414;2022-07-31T00:12:39;30.00;99.90
47618;DHT22;33336;36.728;-4.414;2022-07-31T00:17:42;29.70;99.90
47618;DHT22;33336;36.728;-4.414;2022-07-31T00:22:47;29.80;99.90
47618;DHT22;33336;36.728;-4.414;2022-07-31T00:27:50;29.60;99.90
47618;DHT22;33336;36.728;-4.414;2022-07-31T00:32:54;29.70;99.90
47618;DHT22;33336;36.728;-4.414;2022-07-31T00:37:58;29.50;99.90
47618;DHT22;33336;36.728;-4.414;2022-07-31T00:43:02;29.50;99.90
47618;DHT22;33336;36.728;-4.414;2022-07-31T00:48:05;29.70;99.90
47618;DHT22;33336;36.728;-4.414;2022-07-31T00:53:10;30.00;99.90
47618;DHT22;33336;36.728;-4.414;2022-07-31T00:58:13;29.70;99.90
47618;DHT22;33336;36.728;-4.414;2022-07-31T01:03:16;29.70;99.90
47618;DHT22;33336;36.728;-4.414;2022-07-31T01:08:21;29.70;99.90
47618;DHT22;33336;36.728;-4.414;2022-07-31T01:13:30;29.60;99.90
47618;DHT22;33336;36.728;-4.414;2022-07-31T01:18:34;29.50;99.90
47618;DHT22;33336;36.728;-4.414;2022-07-31T01:24:02;29.60;99.90
47618;DHT22;33336;36.728;-4.414;2022-07-31T01:29:13;29.90;99.90
47618;DHT22;33336;36.728;-4.414;2022-07-31T01:34:23;29.60;99.90
47618;DHT22;33336;36.728;-4.414;2022-07-31T01:39:29;29.60;99.90
47618;DHT22;33336;36.728;-4.414;2022-07-31T01:44:41;29.10;99.90
47618;DHT22;33336;36.728;-4.414;2022-07-31T01:49:45;29.40;99.90
47618;DHT22;33336;36.728;-4.414;2022-07-31T01:54:50;29.00;99.90
47618;DHT22;33336;36.728;-4.414;2022-07-31T01:59:59;28.90;99.90
47618;DHT22;33336;36.728;-4.414;2022-07-31T02:05:06;28.80;99.90
47618;DHT22;33336;36.728;-4.414;2022-07-31T02:10:12;28.70;99.90
47618;DHT22;33336;36.728;-4.414;2022-07-31T02:15:18;29.10;99.90
47618;DHT22;33336;36.728;-4.414;2022-07-31T02:20:22;29.00;99.90
47618;DHT22;33336;36.728;-4.414;2022-07-31T02:25:26;29.10;99.90
47618;DHT22;33336;36.728;-4.414;2022-07-31T02:30:32;29.20;99.90
47618;DHT22;33336;36.728;-4.414;2022-07-31T02:35:37;29.20;99.90
47618;DHT22;33336;36.728;-4.414;2022-07-31T02:40:41;29.20;99.90
47618;DHT22;33336;36.728;-4.414;2022-07-31T02:45:46;29.30;99.90
47618;DHT22;33336;36.728;-4.414;2022-07-31T02:50:50;29.10;99.90
47618;DHT22;33336;36.728;-4.414;2022-07-31T02:55:53;29.40;99.90
47618;DHT22;33336;36.728;-4.414;2022-07-31T03:01:01;29.80;99.90
47618;DHT22;33336;36.728;-4.414;2022-07-31T03:06:05;29.20;99.90
47618;DHT22;33336;36.728;-4.414;2022-07-31T03:11:08;29.50;99.90
47618;DHT22;33336;36.728;-4.414;2022-07-31T03:16:13;29.30;99.90
47618;DHT22;33336;36.728;-4.414;2022-07-31T03:21:17;29.60;99.90
47618;DHT22;33336;36.728;-4.414;2022-07-31T03:26:22;29.50;99.90
47618;DHT22;33336;36.728;-4.414;2022-07-31T03:31:26;29.30;99.90
47618;DHT22;33336;36.728;-4.414;2022-07-31T03:36:31;29.30;99.90
47618;DHT22;33336;36.728;-4.414;2022-07-31T03:41:33;29.70;99.90
47618;DHT22;33336;36.728;-4.414;2022-07-31T03:46:38;29.40;99.90
47618;DHT22;33336;36.728;-4.414;2022-07-31T03:51:41;29.20;99.90
47618;DHT22;33336;36.728;-4.414;2022-07-31T03:56:48;29.10;99.90
47618;DHT22;33336;36.728;-4.414;2022-07-31T04:01:53;28.60;99.90
47618;DHT22;33336;36.728;-4.414;2022-07-31T04:06:56;29.00;99.90
47618;DHT22;33336;36.728;-4.414;2022-07-31T04:11:59;28.60;99.90
47618;DHT22;33336;36.728;-4.414;2022-07-31T04:17:03;28.60;99.90
47618;DHT22;33336;36.728;-4.414;2022-07-31T04:22:06;28.50;99.90
47618;DHT22;33336;36.728;-4.414;2022-07-31T04:27:10;28.60;99.90
47618;DHT22;33336;36.728;-4.414;2022-07-31T04:32:14;28.90;99.90
47618;DHT22;33336;36.728;-4.414;2022-07-31T04:37:18;28.90;99.90
47618;DHT22;33336;36.728;-4.414;2022-07-31T04:42:21;28.80;99.90
47618;DHT22;33336;36.728;-4.414;2022-07-31T04:47:25;29.10;99.90
47618;DHT22;33336;36.728;-4.414;2022-07-31T04:52:28;28.80;99.90
47618;DHT22;33336;36.728;-4.414;2022-07-31T04:57:31;29.00;99.90
47618;DHT22;33336;36.728;-4.414;2022-07-31T05:02:36;29.20;99.90
47618;DHT22;33336;36.728;-4.414;2022-07-31T05:07:39;29.20;99.90
47618;DHT22;33336;36.728;-4.414;2022-07-31T05:12:41;29.10;99.90
47618;DHT22;33336;36.728;-4.414;2022-07-31T05:17:46;29.00;99.90
47618;DHT22;33336;36.728;-4.414;2022-07-31T05:22:49;29.30;99.90
47618;DHT22;33336;36.728;-4.414;2022-07-31T05:27:52;29.20;99.90
47618;DHT22;33336;36.728;-4.414;2022-07-31T05:32:56;29.30;99.90
47618;DHT22;33336;36.728;-4.414;2022-07-31T05:38:00;29.60;99.90
47618;DHT22;33336;36.728;-4.414;2022-07-31T05:43:02;29.30;99.90
47618;DHT22;33336;36.728;-4.414;2022-07-31T05:48:07;29.50;99.90
47618;DHT22;33336;36.728;-4.414;2022-07-31T05:53:10;29.90;99.90
47618;DHT22;33336;36.728;-4.414;2022-07-31T05:58:17;29.60;99.90
47618;DHT22;33336;36.728;-4.414;2022-07-31T06:03:24;29.50;99.90
47618;DHT22;33336;36.728;-4.414;2022-07-31T06:08:28;29.70;99.90
47618;DHT22;33336;36.728;-4.414;2022-07-31T06:13:31;29.90;99.90
47618;DHT22;33336;36.728;-4.414;2022-07-31T06:18:35;29.70;99.90
47618;DHT22;33336;36.728;-4.414;2022-07-31T06:23:38;30.00;99.90
47618;DHT22;33336;36.728;-4.414;2022-07-31T06:28:41;29.80;99.90
47618;DHT22;33336;36.728;-4.414;2022-07-31T06:33:45;29.80;99.90
47618;DHT22;33336;36.728;-4.414;2022-07-31T06:38:48;30.20;99.90
47618;DHT22;33336;36.728;-4.414;2022-07-31T06:43:50;30.10;99.80
47618;DHT22;33336;36.728;-4.414;2022-07-31T06:48:55;30.40;99.30
47618;DHT22;33336;36.728;-4.414;2022-07-31T06:53:58;29.80;99.90
47618;DHT22;33336;36.728;-4.414;2022-07-31T06:59:03;30.10;99.90
47618;DHT22;33336;36.728;-4.414;2022-07-31T07:04:07;30.80;99.10
47618;DHT22;33336;36.728;-4.414;2022-07-31T07:09:11;31.00;98.70
47618;DHT22;33336;36.728;-4.414;2022-07-31T07:14:14;30.30;98.80
47618;DHT22;33336;36.728;-4.414;2022-07-31T07:19:19;30.50;98.60
47618;DHT22;33336;36.728;-4.414;2022-07-31T07:24:22;30.80;98.60
47618;DHT22;33336;36.728;-4.414;2022-07-31T07:29:26;31.00;98.10
47618;DHT22;33336;36.728;-4.414;2022-07-31T07:34:30;30.70;98.60
47618;DHT22;33336;36.728;-4.414;2022-07-31T07:39:34;30.70;98.40
47618;DHT22;33336;36.728;-4.414;2022-07-31T07:44:36;30.10;98.90
47618;DHT22;33336;36.728;-4.414;2022-07-31T07:49:41;30.20;99.50
47618;DHT22;33336;36.728;-4.414;2022-07-31T07:54:44;30.50;98.80
47618;DHT22;33336;36.728;-4.414;2022-07-31T07:59:48;30.50;98.20
47618;DHT22;33336;36.728;-4.414;2022-07-31T08:04:52;31.30;97.00
47618;DHT22;33336;36.728;-4.414;2022-07-31T08:09:56;31.50;96.50
47618;DHT22;33336;36.728;-4.414;2022-07-31T08:14:59;31.70;96.20
47618;DHT22;33336;36.728;-4.414;2022-07-31T08:20:05;31.50;96.00
47618;DHT22;33336;36.728;-4.414;2022-07-31T08:25:08;31.20;96.00
47618;DHT22;33336;36.728;-4.414;2022-07-31T08:30:12;31.80;95.90
47618;DHT22;33336;36.728;-4.414;2022-07-31T08:35:17;31.00;96.20
47618;DHT22;33336;36.728;-4.414;2022-07-31T08:40:23;30.60;96.90
47618;DHT22;33336;36.728;-4.414;2022-07-31T08:45:27;31.00;96.60
47618;DHT22;33336;36.728;-4.414;2022-07-31T08:50:34;31.00;96.40
47618;DHT22;33336;36.728;-4.414;2022-07-31T08:55:39;30.70;96.40
47618;DHT22;33336;36.728;-4.414;2022-07-31T09:00:43;31.50;95.80
47618;DHT22;33336;36.728;-4.414;2022-07-31T09:05:47;31.80;95.20
47618;DHT22;33336;36.728;-4.414;2022-07-31T09:11:01;31.80;95.00
47618;DHT22;33336;36.728;-4.414;2022-07-31T09:16:04;32.10;94.20
47618;DHT22;33336;36.728;-4.414;2022-07-31T09:21:09;32.00;94.10
47618;DHT22;33336;36.728;-4.414;2022-07-31T09:26:12;32.50;92.80
47618;DHT22;33336;36.728;-4.414;2022-07-31T09:31:16;32.20;93.10
47618;DHT22;33336;36.728;-4.414;2022-07-31T09:36:23;32.30;93.40
47618;DHT22;33336;36.728;-4.414;2022-07-31T09:41:25;32.30;93.10
47618;DHT22;33336;36.728;-4.414;2022-07-31T09:46:37;32.60;93.60
47618;DHT22;33336;36.728;-4.414;2022-07-31T09:51:44;32.40;93.80
47618;DHT22;33336;36.728;-4.414;2022-07-31T09:56:48;32.20;94.20
47618;DHT22;33336;36.728;-4.414;2022-07-31T10:01:52;31.90;94.20
47618;DHT22;33336;36.728;-4.414;2022-07-31T10:06:57;32.00;94.10
47618;DHT22;33336;36.728;-4.414;2022-07-31T10:12:01;32.20;93.90
47618;DHT22;33336;36.728;-4.414;2022-07-31T10:17:04;32.10;93.10
47618;DHT22;33336;36.728;-4.414;2022-07-31T10:22:10;32.10;93.40
47618;DHT22;33336;36.728;-4.414;2022-07-31T10:27:15;32.50;93.40
47618;DHT22;33336;36.728;-4.414;2022-07-31T10:32:20;32.60;93.50
47618;DHT22;33336;36.728;-4.414;2022-07-31T10:37:32;32.90;93.00
47618;DHT22;33336;36.728;-4.414;2022-07-31T10:42:44;33.20;92.70
47618;DHT22;33336;36.728;-4.414;2022-07-31T10:47:53;32.60;92.90
47618;DHT22;33336;36.728;-4.414;2022-07-31T10:53:08;32.80;92.90
47618;DHT22;33336;36.728;-4.414;2022-07-31T10:58:12;32.50;92.80
47618;DHT22;33336;36.728;-4.414;2022-07-31T11:03:17;33.10;92.50
47618;DHT22;33336;36.728;-4.414;2022-07-31T11:08:22;33.10;92.20
47618;DHT22;33336;36.728;-4.414;2022-07-31T11:13:26;32.40;92.50
47618;DHT22;33336;36.728;-4.414;2022-07-31T11:18:31;32.70;92.70
47618;DHT22;33336;36.728;-4.414;2022-07-31T11:23:36;32.90;92.50
47618;DHT22;33336;36.728;-4.414;2022-07-31T11:28:43;32.40;92.40
47618;DHT22;33336;36.728;-4.414;2022-07-31T11:33:46;32.20;92.00
47618;DHT22;33336;36.728;-4.414;2022-07-31T11:38:54;32.50;92.20
47618;DHT22;33336;36.728;-4.414;2022-07-31T11:43:58;32.80;91.90
47618;DHT22;33336;36.728;-4.414;2022-07-31T11:49:01;33.00;91.10
47618;DHT22;33336;36.728;-4.414;2022-07-31T11:54:06;32.50;91.50
47618;DHT22;33336;36.728;-4.414;2022-07-31T11:59:09;32.50;91.50
47618;DHT22;33336;36.728;-4.414;2022-07-31T12:04:17;32.80;91.60
47618;DHT22;33336;36.728;-4.414;2022-07-31T12:09:22;33.30;91.20
47618;DHT22;33336;36.728;-4.414;2022-07-31T12:14:29;33.40;91.00
47618;DHT22;33336;36.728;-4.414;2022-07-31T12:19:34;33.30;90.80
47618;DHT22;33336;36.728;-4.414;2022-07-31T12:24:39;33.50;91.20
47618;DHT22;33336;36.728;-4.414;2022-07-31T12:29:43;32.90;91.30
47618;DHT22;33336;36.728;-4.414;2022-07-31T12:34:47;33.20;91.10
47618;DHT22;33336;36.728;-4.414;2022-07-31T12:39:54;33.00;91.10
47618;DHT22;33336;36.728;-4.414;2022-07-31T12:44:59;32.70;91.70
47618;DHT22;33336;36.728;-4.414;2022-07-31T12:50:03;32.90;91.40
47618;DHT22;33336;36.728;-4.414;2022-07-31T12:55:08;32.90;91.50
47618;DHT22;33336;36.728;-4.414;2022-07-31T13:00:12;32.70;91.70
47618;DHT22;33336;36.728;-4.414;2022-07-31T13:05:16;32.90;91.40
47618;DHT22;33336;36.728;-4.414;2022-07-31T13:10:20;33.20;91.30
47618;DHT22;33336;36.728;-4.414;2022-07-31T13:15:24;33.30;91.10
47618;DHT22;33336;36.728;-4.414;2022-07-31T13:20:30;32.90;91.80
47618;DHT22;33336;36.728;-4.414;2022-07-31T13:25:35;32.90;91.80
47618;DHT22;33336;36.728;-4.414;2022-07-31T13:30:38;32.60;92.20
47618;DHT22;33336;36.728;-4.414;2022-07-31T13:35:44;32.50;92.30
47618;DHT22;33336;36.728;-4.414;2022-07-31T13:40:48;32.90;91.80
47618;DHT22;33336;36.728;-4.414;2022-07-31T13:46:09;34.10;91.30
47618;DHT22;33336;36.728;-4.414;2022-07-31T13:51:12;34.70;90.80
47618;DHT22;33336;36.728;-4.414;2022-07-31T13:56:17;35.20;90.30
47618;DHT22;33336;36.728;-4.414;2022-07-31T14:01:19;35.80;89.40
47618;DHT22;33336;36.728;-4.414;2022-07-31T14:06:24;35.30;88.70
47618;DHT22;33336;36.728;-4.414;2022-07-31T14:11:28;34.60;89.30
47618;DHT22;33336;36.728;-4.414;2022-07-31T14:16:32;35.50;89.00
47618;DHT22;33336;36.728;-4.414;2022-07-31T14:21:34;33.90;90.40
47618;DHT22;33336;36.728;-4.414;2022-07-31T14:26:39;35.30;90.00
47618;DHT22;33336;36.728;-4.414;2022-07-31T14:31:42;35.50;88.90
47618;DHT22;33336;36.728;-4.414;2022-07-31T14:36:48;36.10;87.80
47618;DHT22;33336;36.728;-4.414;2022-07-31T14:41:54;35.10;89.90
47618;DHT22;33336;36.728;-4.414;2022-07-31T14:46:57;35.70;88.80
47618;DHT22;33336;36.728;-4.414;2022-07-31T14:52:01;35.60;87.20
47618;DHT22;33336;36.728;-4.414;2022-07-31T14:57:05;36.60;86.60
47618;DHT22;33336;36.728;-4.414;2022-07-31T15:02:08;37.50;84.80
47618;DHT22;33336;36.728;-4.414;2022-07-31T15:07:12;37.90;84.40
47618;DHT22;33336;36.728;-4.414;2022-07-31T15:12:16;38.10;82.80
47618;DHT22;33336;36.728;-4.414;2022-07-31T15:17:21;38.30;82.70
47618;DHT22;33336;36.728;-4.414;2022-07-31T15:22:23;38.40;81.90
47618;DHT22;33336;36.728;-4.414;2022-07-31T15:27:29;38.60;81.80
47618;DHT22;33336;36.728;-4.414;2022-07-31T15:32:35;38.40;82.10
47618;DHT22;33336;36.728;-4.414;2022-07-31T15:37:41;38.60;82.00
47618;DHT22;33336;36.728;-4.414;2022-07-31T15:42:46;38.40;80.90
47618;DHT22;33336;36.728;-4.414;2022-07-31T15:47:51;38.60;81.20
47618;DHT22;33336;36.728;-4.414;2022-07-31T15:52:54;38.00;81.90
47618;DHT22;33336;36.728;-4.414;2022-07-31T15:58:00;39.60;79.50
47618;DHT22;33336;36.728;-4.414;2022-07-31T16:03:02;40.60;78.80
47618;DHT22;33336;36.728;-4.414;2022-07-31T16:08:07;41.00;77.40
47618;DHT22;33336;36.728;-4.414;2022-07-31T16:13:11;37.70;80.40
47618;DHT22;33336;36.728;-4.414;2022-07-31T16:18:15;39.80;78.70
47618;DHT22;33336;36.728;-4.414;2022-07-31T16:23:18;40.60;78.00
47618;DHT22;33336;36.728;-4.414;2022-07-31T16:28:23;41.20;75.60
47618;DHT22;33336;36.728;-4.414;2022-07-31T16:33:26;41.20;75.30
47618;DHT22;33336;36.728;-4.414;2022-07-31T16:38:30;40.00;75.00
47618;DHT22;33336;36.728;-4.414;2022-07-31T16:43:34;40.50;75.90
47618;DHT22;33336;36.728;-4.414;2022-07-31T16:48:38;40.80;75.70
47618;DHT22;33336;36.728;-4.414;2022-07-31T16:53:41;41.00;75.60
47618;DHT22;33336;36.728;-4.414;2022-07-31T16:58:46;41.30;74.80
47618;DHT22;33336;36.728;-4.414;2022-07-31T17:03:49;41.30;75.00
47618;DHT22;33336;36.728;-4.414;2022-07-31T17:08:53;40.70;74.80
47618;DHT22;33336;36.728;-4.414;2022-07-31T17:13:58;40.60;74.80
47618;DHT22;33336;36.728;-4.414;2022-07-31T17:19:01;40.20;75.90
47618;DHT22;33336;36.728;-4.414;2022-07-31T17:24:05;40.20;75.70
47618;DHT22;33336;36.728;-4.414;2022-07-31T17:29:10;39.80;75.90
47618;DHT22;33336;36.728;-4.414;2022-07-31T17:34:13;39.40;76.10
47618;DHT22;33336;36.728;-4.414;2022-07-31T17:39:17;39.20;77.40
47618;DHT22;33336;36.728;-4.414;2022-07-31T17:44:21;39.00;77.80
47618;DHT22;33336;36.728;-4.414;2022-07-31T17:49:26;39.00;77.80
47618;DHT22;33336;36.728;-4.414;2022-07-31T17:54:29;36.10;82.40
47618;DHT22;33336;36.728;-4.414;2022-07-31T17:59:34;38.00;79.90
47618;DHT22;33336;36.728;-4.414;2022-07-31T18:04:36;38.80;79.00
47618;DHT22;33336;36.728;-4.414;2022-07-31T18:09:40;39.00;78.40
47618;DHT22;33336;36.728;-4.414;2022-07-31T18:14:45;38.60;78.80
47618;DHT22;33336;36.728;-4.414;2022-07-31T18:19:50;35.80;83.70
47618;DHT22;33336;36.728;-4.414;2022-07-31T18:24:53;37.20;82.10
47618;DHT22;33336;36.728;-4.414;2022-07-31T18:29:58;37.50;82.80
47618;DHT22;33336;36.728;-4.414;2022-07-31T18:35:03;39.40;78.30
47618;DHT22;33336;36.728;-4.414;2022-07-31T18:40:08;38.60;79.80
47618;DHT22;33336;36.728;-4.414;2022-07-31T18:45:13;39.80;78.10
47618;DHT22;33336;36.728;-4.414;2022-07-31T18:50:17;39.40;78.70
47618;DHT22;33336;36.728;-4.414;2022-07-31T18:55:19;40.00;77.40
47618;DHT22;33336;36.728;-4.414;2022-07-31T19:00:26;40.00;76.70
47618;DHT22;33336;36.728;-4.414;2022-07-31T19:05:28;39.40;77.10
47618;DHT22;33336;36.728;-4.414;2022-07-31T19:10:33;38.40;78.00
47618;DHT22;33336;36.728;-4.414;2022-07-31T19:15:37;38.20;79.00
47618;DHT22;33336;36.728;-4.414;2022-07-31T19:20:41;37.40;80.20
47618;DHT22;33336;36.728;-4.414;2022-07-31T19:25:45;36.90;81.20
47618;DHT22;33336;36.728;-4.414;2022-07-31T19:30:50;36.40;82.40
47618;DHT22;33336;36.728;-4.414;2022-07-31T19:35:53;36.10;83.30
47618;DHT22;33336;36.728;-4.414;2022-07-31T19:40:57;35.60;84.30
47618;DHT22;33336;36.728;-4.414;2022-07-31T19:46:02;34.40;85.90
47618;DHT22;33336;36.728;-4.414;2022-07-31T19:51:05;34.40;87.00
47618;DHT22;33336;36.728;-4.414;2022-07-31T19:56:09;34.40;87.20
47618;DHT22;33336;36.728;-4.414;2022-07-31T20:01:14;34.60;87.20
47618;DHT22;33336;36.728;-4.414;2022-07-31T20:06:19;34.30;87.70
47618;DHT22;33336;36.728;-4.414;2022-07-31T20:11:23;34.10;88.40
47618;DHT22;33336;36.728;-4.414;2022-07-31T20:16:27;34.00;88.70
47618;DHT22;33336;36.728;-4.414;2022-07-31T20:21:31;33.80;89.50
47618;DHT22;33336;36.728;-4.414;2022-07-31T20:26:34;33.70;90.00
47618;DHT22;33336;36.728;-4.414;2022-07-31T20:31:40;32.60;91.40
47618;DHT22;33336;36.728;-4.414;2022-07-31T20:36:42;32.90;91.10
47618;DHT22;33336;36.728;-4.414;2022-07-31T20:41:47;33.10;90.80
47618;DHT22;33336;36.728;-4.414;2022-07-31T20:46:51;33.20;91.00
47618;DHT22;33336;36.728;-4.414;2022-07-31T20:51:55;33.10;90.90
47618;DHT22;33336;36.728;-4.414;2022-07-31T20:56:58;33.00;91.10
47618;DHT22;33336;36.728;-4.414;2022-07-31T21:02:02;32.70;91.40
47618;DHT22;33336;36.728;-4.414;2022-07-31T21:07:05;32.70;91.30
47618;DHT22;33336;36.728;-4.414;2022-07-31T21:12:09;32.70;91.50
47618;DHT22;33336;36.728;-4.414;2022-07-31T21:17:13;32.20;92.10
47618;DHT22;33336;36.728;-4.414;2022-07-31T21:22:17;32.10;92.20
47618;DHT22;33336;36.728;-4.414;2022-07-31T21:27:20;32.10;92.10
47618;DHT22;33336;36.728;-4.414;2022-07-31T21:32:26;31.70;92.70
47618;DHT22;33336;36.728;-4.414;2022-07-31T21:37:29;31.90;92.80
47618;DHT22;33336;36.728;-4.414;2022-07-31T21:42:34;31.80;92.70
47618;DHT22;33336;36.728;-4.414;2022-07-31T21:47:40;32.00;92.40
47618;DHT22;33336;36.728;-4.414;2022-07-31T21:52:45;32.00;92.40
47618;DHT22;33336;36.728;-4.414;2022-07-31T21:57:47;31.90;92.60
47618;DHT22;33336;36.728;-4.414;2022-07-31T22:02:52;32.10;92.30
47618;DHT22;33336;36.728;-4.414;2022-07-31T22:07:55;31.60;93.00
47618;DHT22;33336;36.728;-4.414;2022-07-31T22:12:58;32.00;92.60
47618;DHT22;33336;36.728;-4.414;2022-07-31T22:18:04;32.10;92.40
47618;DHT22;33336;36.728;-4.414;2022-07-31T22:23:07;31.40;93.20
47618;DHT22;33336;36.728;-4.414;2022-07-31T22:28:12;30.60;94.30
47618;DHT22;33336;36.728;-4.414;2022-07-31T22:33:17;31.40;93.70
47618;DHT22;33336;36.728;-4.414;2022-07-31T22:38:22;31.60;93.40
47618;DHT22;33336;36.728;-4.414;2022-07-31T22:43:25;31.70;93.20
47618;DHT22;33336;36.728;-4.414;2022-07-31T22:48:32;31.40;93.50
47618;DHT22;33336;36.728;-4.414;2022-07-31T22:53:34;31.50;93.10
47618;DHT22;33336;36.728;-4.414;2022-07-31T22:58:38;31.50;93.10
47618;DHT22;33336;36.728;-4.414;2022-07-31T23:03:42;31.60;93.10
47618;DHT22;33336;36.728;-4.414;2022-07-31T23:08:49;31.50;93.20
47618;DHT22;33336;36.728;-4.414;2022-07-31T23:13:52;31.60;93.20
47618;DHT22;33336;36.728;-4.414;2022-07-31T23:18:57;31.50;93.30
47618;DHT22;33336;36.728;-4.414;2022-07-31T23:24:00;31.50;93.30
47618;DHT22;33336;36.728;-4.414;2022-07-31T23:29:04;31.50;93.20
47618;DHT22;33336;36.728;-4.414;2022-07-31T23:34:09;31.40;93.40
47618;DHT22;33336;36.728;-4.414;2022-07-31T23:39:13;31.30;93.60
47618;DHT22;33336;36.728;-4.414;2022-07-31T23:44:16;30.80;93.20
47618;DHT22;33336;36.728;-4.414;2022-07-31T23:49:21;29.50;95.70
47618;DHT22;33336;36.728;-4.414;2022-07-31T23:54:24;30.00;95.30
47618;DHT22;33336;36.728;-4.414;2022-07-31T23:59:28;29.50;95.40
